Latest Coastal Weather Observations for Evans Head

IDN60701

Issued at 3:51 pm EST Friday 29 July 2016 (issued every 10 minutes, with the page automatically refreshed every 10 minutes)

About coastal observations | Map of coastal stations | Coastal observations for NSW | Marine services | Other Formats
Station Details ID: 058212 Name: EVANS HEAD RAAF BOMBING RANGE AWS Lat: -29.18 Lon: 153.40 Height: 62.5 m
Data from the previous 72 hours. | See also: Recent months at Evans Head
Date/Time
EST
Temp
°C
Wind Pressure Rain since
9am
mm
Weather Cloud Vis
km
Sea
Height
m
Swell
Dir  Spd
kts
Gust
kts
hPa Trend Height
m
Period
s
Dir
29/03:30pm 19.5 NNE 9 13 1018.8 - 0.0 - - - - - - -
29/03:00pm 21.1 NNE 7 13 1019.0 - 0.0 - - - - - - -
29/02:30pm 20.8 NE 8 12 1019.0 - 0.0 - - - - - - -
29/02:00pm 23.9 NNW 7 11 1019.2 - 0.0 - - - - - - -
29/01:30pm 24.5 NNW 5 9 1019.5 - 0.0 - - - - - - -
29/01:00pm 23.7 NNW 8 15 1019.9 - 0.0 - - - - - - -
29/12:30pm 22.9 NNW 5 7 1020.8 - 0.0 - - - - - - -
29/12:00pm 22.2 NNW 6 10 1021.4 - 0.0 - - - - - - -
29/11:30am 21.3 NW 6 12 1022.0 - 0.0 - - - - - - -
29/11:00am 19.5 WNW 5 10 1022.6 - 0.0 - - - - - - -
29/10:30am 18.6 W 5 6 1022.9 - 0.0 - - - - - - -
29/10:00am 17.6 WNW 5 8 1023.2 - 0.0 - - - - - - -
29/09:30am 15.5 WSW 4 8 1023.5 - 0.0 - - - - - - -
29/09:00am 14.6 W 4 7 1023.5 - 0.0 - - - - - - -
29/08:30am 12.9 SW 4 5 1023.2 - 0.0 - - - - - - -
29/08:00am 10.1 NNW 4 5 1023.2 - 0.0 - - - - - - -
29/07:30am 10.3 WNW 4 5 1023.2 - 0.0 - - - - - - -
29/07:00am 8.4 WNW 6 9 1022.9 - 0.0 - - - - - - -
29/06:30am 8.4 W 6 8 1022.7 - 0.0 - - - - - - -
29/06:00am 7.2 WNW 5 7 1022.4 - 0.0 - - - - - - -
29/05:30am 9.1 WSW 4 5 1022.2 - 0.0 - - - - - - -
29/05:00am 9.1 W 4 6 1021.8 - 0.0 - - - - - - -
29/04:30am 7.5 NNW 5 7 1021.4 - 0.0 - - - - - - -
29/04:00am 8.6 NW 5 7 1021.4 - 0.0 - - - - - - -
29/03:30am 10.4 WNW 7 8 1021.7 - 0.0 - - - - - - -
29/03:00am 9.0 NW 5 6 1021.9 - 0.0 - - - - - - -
29/02:30am 9.5 NW 5 6 1022.0 - 0.0 - - - - - - -
29/02:00am 9.2 NW 5 7 1022.0 - 0.0 - - - - - - -
29/01:30am 9.0 NNW 7 9 1021.9 - 0.0 - - - - - - -
29/01:00am 9.6 NNW 6 7 1022.0 - 0.0 - - - - - - -
29/12:30am 9.6 NNW 6 8 1022.3 - 0.0 - - - - - - -
29/12:00am 9.9 NNW 5 6 1022.4 - 0.0 - - - - - - -
 
Date/Time
EST
Temp
°C
Wind Pressure Rain since
9am
mm
Weather Cloud Vis
km
Sea
Height
m
Swell
Dir  Spd
kts
Gust
kts
hPa Trend Height
m
Period
s
Dir
28/11:30pm 10.1 NW 6 7 1022.5 - 0.0 - - - - - - -
28/11:00pm 10.3 NNW 6 7 1022.7 - 0.0 - - - - - - -
28/10:30pm 10.4 NNW 6 8 1022.8 - 0.0 - - - - - - -
28/10:00pm 10.6 NNW 6 8 1022.8 - 0.0 - - - - - - -
28/09:30pm 10.7 NNW 6 7 1022.9 - 0.0 - - - - - - -
28/09:00pm 11.4 NNW 6 7 1022.9 - 0.0 - - - - - - -
28/08:30pm 12.1 NNW 5 6 1023.0 - 0.0 - - - - - - -
28/08:00pm 12.3 NNW 5 6 1022.9 - 0.0 - - - - - - -
28/07:30pm 12.5 NNW 5 6 1022.8 - 0.0 - - - - - - -
28/07:00pm 13.1 N 4 4 1022.7 - 0.0 - - - - - - -
28/06:30pm 13.7 N 4 5 1022.5 - 0.0 - - - - - - -
28/06:00pm 13.2 N 5 6 1022.3 - 0.0 - - - - - - -
28/05:30pm 13.6 N 5 6 1022.3 - 0.0 - - - - - - -
28/05:00pm 14.9 NNE 5 6 1022.1 - 0.0 - - - - - - -
28/04:30pm 16.2 NE 3 6 1022.2 - 0.0 - - - - - - -
28/04:00pm 16.7 ESE 5 7 1022.2 - 0.0 - - - - - - -
28/03:30pm 17.2 ESE 6 8 1022.2 - 0.0 - - - - - - -
28/03:00pm 17.7 SE 7 9 1022.2 - 0.0 - - - - - - -
28/02:30pm 18.3 SE 8 11 1022.2 - 0.0 - - - - - - -
28/02:00pm 18.5 SE 8 11 1022.4 - 0.0 - - - - - - -
28/01:30pm 18.5 SE 8 11 1022.5 - 0.0 - - - - - - -
28/01:00pm 19.1 SE 7 10 1022.8 - 0.0 - - - - - - -
28/12:30pm 18.6 SE 9 13 1023.3 - 0.0 - - - - - - -
28/12:00pm 18.1 SSE 10 15 1023.6 - 0.0 - - - - - - -
28/11:30am 18.5 S 8 12 1024.0 - 0.0 - - - - - - -
28/11:00am 18.5 S 9 12 1024.4 - 0.0 - - - - - - -
28/10:30am 17.6 SSW 6 10 1024.5 - 0.0 - - - - - - -
28/10:00am 16.6 SSW 7 11 1024.3 - 0.0 - - - - - - -
28/09:30am 14.9 SW 9 12 1024.4 - 0.0 - - - - - - -
28/09:00am 13.7 SW 9 13 1024.3 - 0.0 - - - - - - -
28/08:30am 12.7 SW 8 13 1024.2 - 0.0 - - - - - - -
28/08:00am 11.6 WSW 8 14 1024.0 - 0.0 - - - - - - -
28/07:30am 10.9 WSW 8 12 1023.7 - 0.0 - - - - - - -
28/07:00am 10.3 WSW 8 10 1023.2 - 0.0 - - - - - - -
28/06:30am 10.2 WSW 8 11 1022.8 - 0.0 - - - - - - -
28/06:00am 10.3 WSW 8 10 1022.5 - 0.0 - - - - - - -
28/05:30am 10.1 W 7 9 1022.0 - 0.0 - - - - - - -
28/05:00am 10.4 W 7 9 1021.6 - 0.0 - - - - - - -
28/04:30am 11.0 WSW 8 9 1021.3 - 0.0 - - - - - - -
28/04:00am 11.5 WSW 7 8 1021.1 - 0.0 - - - - - - -
28/03:30am 11.8 WSW 7 9 1021.1 - 0.0 - - - - - - -
28/03:00am 12.2 WSW 7 9 1021.1 - 0.0 - - - - - - -
28/02:30am 12.8 WSW 7 9 1021.1 - 0.0 - - - - - - -
28/02:00am 12.7 WSW 7 9 1020.9 - 0.0 - - - - - - -
28/01:30am 12.9 WSW 7 10 1021.0 - 0.0 - - - - - - -
28/01:00am 13.0 WSW 7 10 1021.0 - 0.0 - - - - - - -
28/12:30am 13.2 WSW 7 10 1021.1 - 0.0 - - - - - - -
28/12:00am 12.9 WSW 8 11 1021.0 - 0.0 - - - - - - -
 
Date/Time
EST
Temp
°C
Wind Pressure Rain since
9am
mm
Weather Cloud Vis
km
Sea
Height
m
Swell
Dir  Spd
kts
Gust
kts
hPa Trend Height
m
Period
s
Dir
27/11:30pm 13.5 WSW 7 10 1020.7 - 0.0 - - - - - - -
27/11:00pm 13.3 WSW 7 9 1020.5 - 0.0 - - - - - - -
27/10:30pm 13.8 SW 7 9 1020.3 - 0.0 - - - - - - -
27/10:00pm 13.7 WSW 7 9 1020.3 - 0.0 - - - - - - -
27/09:30pm 13.6 WSW 7 10 1019.9 - 0.0 - - - - - - -
27/09:00pm 13.5 SW 8 10 1019.6 - 0.0 - - - - - - -
27/08:30pm 13.9 SW 8 10 1019.5 - 0.0 - - - - - - -
27/08:00pm 14.7 SW 9 11 1019.2 - 0.0 - - - - - - -
27/07:30pm 14.7 W 6 8 1019.0 - 0.0 - - - - - - -
27/07:00pm 12.0 NW 6 7 1018.3 - 0.0 - - - - - - -
27/06:30pm 11.6 NNW 6 7 1017.8 - 0.0 - - - - - - -
27/06:00pm 12.1 NNW 5 7 1017.2 - 0.0 - - - - - - -
27/05:30pm 13.4 NNW 5 6 1016.6 - 0.0 - - - - - - -
27/05:00pm 14.9 NW 4 7 1016.2 - 0.0 - - - - - - -
27/04:30pm 16.0 NNW 6 9 1015.5 - 0.0 - - - - - - -
27/04:00pm 18.2 NW 4 7 1015.3 - 0.0 - - - - - - -
27/03:30pm 18.5 NW 5 9 1015.2 - 0.0 - - - - - - -
27/03:00pm 19.7 NW 7 13 1015.1 - 0.0 - - - - - - -
27/02:30pm 19.5 NW 7 13 1014.9 - 0.0 - - - - - - -
27/02:00pm 18.9 NNW 7 12 1015.0 - 0.0 - - - - - - -
27/01:30pm 18.4 NW 8 13 1015.3 - 0.0 - - - - - - -
27/01:00pm 17.3 NW 8 13 1015.7 - 0.0 - - - - - - -
27/12:30pm 16.7 NW 7 12 1016.2 - 0.0 - - - - - - -
27/12:00pm 16.3 NW 7 12 1016.6 - 0.0 - - - - - - -
27/11:30am 15.4 NW 10 15 1016.9 - 0.0 - - - - - - -
27/11:00am 15.2 NW 9 13 1017.5 - 0.0 - - - - - - -
27/10:30am 14.9 NW 9 13 1017.8 - 0.0 - - - - - - -
27/10:00am 14.5 NW 8 14 1017.7 - 0.0 - - - - - - -
27/09:30am 13.9 WNW 7 10 1017.7 - 0.0 - - - - - - -
27/09:00am 13.8 WNW 8 12 1018.0 - 0.0 - - - - - - -
27/08:30am 13.7 WNW 8 13 1018.0 - 0.0 - - - - - - -
27/08:00am 13.3 WNW 8 11 1017.7 - 0.0 - - - - - - -
27/07:30am 13.3 WNW 7 11 1017.5 - 0.0 - - - - - - -
27/07:00am 13.3 WNW 9 13 1017.9 - 0.0 - - - - - - -
27/06:30am 13.8 NW 8 12 1016.9 - 0.0 - - - - - - -
27/06:00am 13.9 WNW 9 15 1016.4 - 0.0 - - - - - - -
27/05:30am 13.9 WNW 9 14 1016.4 - 0.0 - - - - - - -
27/05:00am 13.6 NW 7 11 1015.7 - 0.0 - - - - - - -
27/04:30am 14.0 NW 8 12 1016.0 - 0.0 - - - - - - -
27/04:00am 13.6 WNW 7 10 1015.5 - 0.0 - - - - - - -
27/03:30am 14.3 WNW 8 15 1015.6 - 0.0 - - - - - - -
27/03:00am 13.8 NW 7 10 1016.2 - 0.0 - - - - - - -
27/02:30am 13.3 WNW 7 9 1016.0 - 0.0 - - - - - - -
27/02:00am 13.0 WNW 6 9 1016.1 - 0.0 - - - - - - -
27/01:30am 12.9 NNW 5 7 1016.0 - 0.0 - - - - - - -
27/01:00am 13.7 W 6 8 1016.1 - 0.0 - - - - - - -
27/12:30am 13.5 NNW 5 9 1015.6 - 0.0 - - - - - - -
27/12:00am 14.6 WNW 7 10 1015.9 - 0.0 - - - - - - -
 
Date/Time
EST
Temp
°C
Wind Pressure Rain since
9am
mm
Weather Cloud Vis
km
Sea
Height
m
Swell
Dir  Spd
kts
Gust
kts
hPa Trend Height
m
Period
s
Dir
26/11:30pm 14.4 WNW 7 12 1015.9 - 0.0 - - - - - - -
26/11:00pm 13.4 NNW 7 9 1015.7 - 0.0 - - - - - - -
26/10:30pm 12.6 NNW 7 9 1016.1 - 0.0 - - - - - - -
26/10:00pm 13.1 NNW 5 7 1016.5 - 0.0 - - - - - - -
26/09:30pm 13.3 NNW 7 9 1016.2 - 0.0 - - - - - - -
26/09:00pm 13.3 NNW 6 7 1016.3 - 0.0 - - - - - - -
26/08:30pm 13.8 N 5 7 1016.3 - 0.0 - - - - - - -
26/08:00pm 13.8 N 7 10 1016.4 - 0.0 - - - - - - -
26/07:30pm 13.9 NNW 6 7 1016.2 - 0.0 - - - - - - -
26/07:00pm 14.1 NNW 5 7 1015.6 - 0.0 - - - - - - -
26/06:30pm 14.4 N 6 8 1015.8 - 0.0 - - - - - - -
26/06:00pm 15.3 N 6 9 1015.5 - 0.0 - - - - - - -
26/05:30pm 15.7 N 7 10 1015.3 - 0.0 - - - - - - -
26/05:00pm 16.7 NNE 5 7 1015.1 - 0.0 - - - - - - -
26/04:30pm 17.8 NNE 4 7 1015.0 - 0.0 - - - - - - -
26/04:00pm 19.5 N 1 5 1014.9 - 0.0 - - - - - - -

Other Formats:

Comma delimited format used in spreadsheet applications
http://www.bom.gov.au/fwo/IDN60701/IDN60701.94598.axf

JavaScript Object Notation format (JSON) in row-major order
http://www.bom.gov.au/fwo/IDN60701/IDN60701.94598.json